Hopedale, Louisiana
Current Conditions -  °F | °C
As of 6:55 AM on Wednesday 22 Oct 2014 (Local Time) from KNBG Reporting Station
Clear Clear  
Wind Chill: 61°   Ceiling: Unl
Heat Index: 61°   Visibility: 7mi
Dew Point: 56°   Wind: 6mph
Humidity: 83%   Direction: 40°NE
Pressure: 30.04"   Gusts: NA
Location:  29.8369°N, 89.7702°W
Report Text: KNBG 221155Z 04005KT 7SM CLR 16/13 A3004 RMK AO2 SLP173 T01610133 10167 20133 53011 $
Loading
Personal Weather Stations






























Interactive Weather Map
Tropical Storm Tracking
New forecast layout! Learn more

10-Day Weather Forecast

Advertisements
Track Severe Weather on mobile